sensor_id;sensor_type;location;lat;lon;timestamp;P1;durP1;ratioP1;P2;durP2;ratioP2
80183;SDS011;69682;52.138;5.440;2023-08-01T00:00:03;4.25;;;1.92;;
80183;SDS011;69682;52.138;5.440;2023-08-01T00:02:32;3.70;;;2.15;;
80183;SDS011;69682;52.138;5.440;2023-08-01T00:04:58;3.03;;;2.17;;
80183;SDS011;69682;52.138;5.440;2023-08-01T00:07:26;3.08;;;2.05;;
80183;SDS011;69682;52.138;5.440;2023-08-01T00:09:53;4.95;;;1.98;;
80183;SDS011;69682;52.138;5.440;2023-08-01T00:12:23;4.82;;;2.50;;
80183;SDS011;69682;52.138;5.440;2023-08-01T00:14:50;2.30;;;1.83;;
80183;SDS011;69682;52.138;5.440;2023-08-01T00:17:17;3.20;;;1.92;;
80183;SDS011;69682;52.138;5.440;2023-08-01T00:19:43;4.82;;;2.25;;
80183;SDS011;69682;52.138;5.440;2023-08-01T00:22:10;3.85;;;2.25;;
80183;SDS011;69682;52.138;5.440;2023-08-01T00:24:37;5.68;;;1.95;;
80183;SDS011;69682;52.138;5.440;2023-08-01T00:27:03;4.47;;;1.63;;
80183;SDS011;69682;52.138;5.440;2023-08-01T00:29:36;7.45;;;2.13;;
80183;SDS011;69682;52.138;5.440;2023-08-01T00:32:03;2.70;;;2.35;;
80183;SDS011;69682;52.138;5.440;2023-08-01T00:34:30;4.15;;;2.05;;
80183;SDS011;69682;52.138;5.440;2023-08-01T00:36:57;5.13;;;2.17;;
80183;SDS011;69682;52.138;5.440;2023-08-01T00:39:24;5.70;;;2.83;;
80183;SDS011;69682;52.138;5.440;2023-08-01T00:41:50;3.28;;;2.10;;
80183;SDS011;69682;52.138;5.440;2023-08-01T00:44:17;5.00;;;1.85;;
80183;SDS011;69682;52.138;5.440;2023-08-01T00:46:44;6.25;;;2.70;;
80183;SDS011;69682;52.138;5.440;2023-08-01T00:49:11;6.53;;;2.30;;
80183;SDS011;69682;52.138;5.440;2023-08-01T00:51:38;6.90;;;2.22;;
80183;SDS011;69682;52.138;5.440;2023-08-01T00:54:05;3.72;;;2.20;;
80183;SDS011;69682;52.138;5.440;2023-08-01T00:56:32;4.25;;;1.98;;
80183;SDS011;69682;52.138;5.440;2023-08-01T00:59:00;3.42;;;1.73;;
80183;SDS011;69682;52.138;5.440;2023-08-01T01:01:27;5.15;;;1.80;;
80183;SDS011;69682;52.138;5.440;2023-08-01T01:03:54;4.38;;;2.03;;
80183;SDS011;69682;52.138;5.440;2023-08-01T01:06:24;4.15;;;2.22;;
80183;SDS011;69682;52.138;5.440;2023-08-01T01:08:58;5.07;;;2.15;;
80183;SDS011;69682;52.138;5.440;2023-08-01T01:11:25;5.03;;;2.00;;
80183;SDS011;69682;52.138;5.440;2023-08-01T01:13:51;3.90;;;1.92;;
80183;SDS011;69682;52.138;5.440;2023-08-01T01:16:19;3.95;;;2.20;;
80183;SDS011;69682;52.138;5.440;2023-08-01T01:18:46;3.83;;;2.03;;
80183;SDS011;69682;52.138;5.440;2023-08-01T01:21:13;3.67;;;3.15;;
80183;SDS011;69682;52.138;5.440;2023-08-01T01:23:40;6.63;;;2.80;;
80183;SDS011;69682;52.138;5.440;2023-08-01T01:26:07;5.68;;;2.67;;
80183;SDS011;69682;52.138;5.440;2023-08-01T01:28:35;3.97;;;2.60;;
80183;SDS011;69682;52.138;5.440;2023-08-01T01:31:03;4.57;;;2.35;;
80183;SDS011;69682;52.138;5.440;2023-08-01T01:33:30;6.38;;;2.97;;
80183;SDS011;69682;52.138;5.440;2023-08-01T01:35:57;7.03;;;2.65;;
80183;SDS011;69682;52.138;5.440;2023-08-01T01:38:23;3.75;;;2.20;;
80183;SDS011;69682;52.138;5.440;2023-08-01T01:40:50;5.55;;;2.42;;
80183;SDS011;69682;52.138;5.440;2023-08-01T01:43:16;6.80;;;2.95;;
80183;SDS011;69682;52.138;5.440;2023-08-01T01:45:43;4.72;;;2.90;;
80183;SDS011;69682;52.138;5.440;2023-08-01T01:48:09;4.10;;;2.58;;
80183;SDS011;69682;52.138;5.440;2023-08-01T01:50:36;5.55;;;2.53;;
80183;SDS011;69682;52.138;5.440;2023-08-01T01:53:03;5.00;;;2.80;;
80183;SDS011;69682;52.138;5.440;2023-08-01T01:55:29;5.47;;;2.53;;
80183;SDS011;69682;52.138;5.440;2023-08-01T01:57:56;6.18;;;2.95;;
80183;SDS011;69682;52.138;5.440;2023-08-01T02:00:23;5.45;;;2.60;;
80183;SDS011;69682;52.138;5.440;2023-08-01T02:02:49;6.40;;;2.85;;
80183;SDS011;69682;52.138;5.440;2023-08-01T02:05:16;7.38;;;3.13;;
80183;SDS011;69682;52.138;5.440;2023-08-01T02:07:42;3.70;;;2.58;;
80183;SDS011;69682;52.138;5.440;2023-08-01T02:10:09;5.03;;;2.63;;
80183;SDS011;69682;52.138;5.440;2023-08-01T02:12:36;4.93;;;3.50;;
80183;SDS011;69682;52.138;5.440;2023-08-01T02:15:03;9.30;;;2.80;;
80183;SDS011;69682;52.138;5.440;2023-08-01T02:17:30;4.20;;;2.97;;
80183;SDS011;69682;52.138;5.440;2023-08-01T02:19:56;5.72;;;2.75;;
80183;SDS011;69682;52.138;5.440;2023-08-01T02:22:24;5.00;;;2.83;;
80183;SDS011;69682;52.138;5.440;2023-08-01T02:24:51;8.32;;;3.30;;
80183;SDS011;69682;52.138;5.440;2023-08-01T02:27:17;4.70;;;2.72;;
80183;SDS011;69682;52.138;5.440;2023-08-01T02:29:44;7.25;;;2.33;;
80183;SDS011;69682;52.138;5.440;2023-08-01T02:32:11;7.88;;;2.83;;
80183;SDS011;69682;52.138;5.440;2023-08-01T02:34:37;6.18;;;2.80;;
80183;SDS011;69682;52.138;5.440;2023-08-01T02:37:04;6.35;;;3.10;;
80183;SDS011;69682;52.138;5.440;2023-08-01T02:39:31;6.97;;;3.17;;
80183;SDS011;69682;52.138;5.440;2023-08-01T02:41:58;8.00;;;3.38;;
80183;SDS011;69682;52.138;5.440;2023-08-01T02:44:24;7.18;;;3.50;;
80183;SDS011;69682;52.138;5.440;2023-08-01T02:46:51;8.15;;;3.58;;
80183;SDS011;69682;52.138;5.440;2023-08-01T02:49:17;6.68;;;3.33;;
80183;SDS011;69682;52.138;5.440;2023-08-01T02:51:44;6.85;;;2.67;;
80183;SDS011;69682;52.138;5.440;2023-08-01T02:54:11;5.32;;;2.97;;
80183;SDS011;69682;52.138;5.440;2023-08-01T02:56:37;5.28;;;2.50;;
80183;SDS011;69682;52.138;5.440;2023-08-01T02:59:08;6.88;;;3.22;;
80183;SDS011;69682;52.138;5.440;2023-08-01T03:01:35;7.55;;;2.92;;
80183;SDS011;69682;52.138;5.440;2023-08-01T03:04:05;5.72;;;2.20;;
80183;SDS011;69682;52.138;5.440;2023-08-01T03:06:32;5.65;;;2.70;;
80183;SDS011;69682;52.138;5.440;2023-08-01T03:09:00;4.90;;;2.47;;
80183;SDS011;69682;52.138;5.440;2023-08-01T03:11:26;7.32;;;2.55;;
80183;SDS011;69682;52.138;5.440;2023-08-01T03:13:53;7.60;;;2.55;;
80183;SDS011;69682;52.138;5.440;2023-08-01T03:16:30;5.40;;;2.30;;
80183;SDS011;69682;52.138;5.440;2023-08-01T03:18:57;4.50;;;1.70;;
80183;SDS011;69682;52.138;5.440;2023-08-01T03:21:26;5.10;;;2.45;;
80183;SDS011;69682;52.138;5.440;2023-08-01T03:23:53;5.47;;;2.60;;
80183;SDS011;69682;52.138;5.440;2023-08-01T03:26:19;4.03;;;2.15;;
80183;SDS011;69682;52.138;5.440;2023-08-01T03:28:46;5.03;;;2.60;;
80183;SDS011;69682;52.138;5.440;2023-08-01T03:31:12;7.05;;;2.50;;
80183;SDS011;69682;52.138;5.440;2023-08-01T03:33:39;3.58;;;2.67;;
80183;SDS011;69682;52.138;5.440;2023-08-01T03:36:06;5.57;;;2.30;;
80183;SDS011;69682;52.138;5.440;2023-08-01T03:38:32;6.78;;;3.00;;
80183;SDS011;69682;52.138;5.440;2023-08-01T03:40:59;4.55;;;2.25;;
80183;SDS011;69682;52.138;5.440;2023-08-01T03:43:26;7.45;;;3.25;;
80183;SDS011;69682;52.138;5.440;2023-08-01T03:45:52;10.43;;;3.35;;
80183;SDS011;69682;52.138;5.440;2023-08-01T03:48:19;5.72;;;2.33;;
80183;SDS011;69682;52.138;5.440;2023-08-01T03:50:45;7.85;;;3.08;;
80183;SDS011;69682;52.138;5.440;2023-08-01T03:53:12;7.28;;;3.55;;
80183;SDS011;69682;52.138;5.440;2023-08-01T03:55:38;5.60;;;2.90;;
80183;SDS011;69682;52.138;5.440;2023-08-01T03:58:05;11.73;;;3.85;;
80183;SDS011;69682;52.138;5.440;2023-08-01T04:00:32;6.55;;;2.88;;
80183;SDS011;69682;52.138;5.440;2023-08-01T04:02:59;5.05;;;2.05;;
80183;SDS011;69682;52.138;5.440;2023-08-01T04:05:26;4.43;;;2.80;;
80183;SDS011;69682;52.138;5.440;2023-08-01T04:07:56;6.97;;;2.25;;
80183;SDS011;69682;52.138;5.440;2023-08-01T04:10:23;6.43;;;2.60;;
80183;SDS011;69682;52.138;5.440;2023-08-01T04:12:50;5.80;;;2.63;;
80183;SDS011;69682;52.138;5.440;2023-08-01T04:15:16;8.45;;;3.33;;
80183;SDS011;69682;52.138;5.440;2023-08-01T04:17:43;7.88;;;3.38;;
80183;SDS011;69682;52.138;5.440;2023-08-01T04:20:10;5.70;;;2.70;;
80183;SDS011;69682;52.138;5.440;2023-08-01T04:22:37;9.65;;;3.22;;
80183;SDS011;69682;52.138;5.440;2023-08-01T04:25:04;7.28;;;2.92;;
80183;SDS011;69682;52.138;5.440;2023-08-01T04:27:31;8.45;;;3.25;;
80183;SDS011;69682;52.138;5.440;2023-08-01T04:29:57;6.63;;;3.05;;
80183;SDS011;69682;52.138;5.440;2023-08-01T04:32:24;10.20;;;3.00;;
80183;SDS011;69682;52.138;5.440;2023-08-01T04:34:51;7.47;;;2.92;;
80183;SDS011;69682;52.138;5.440;2023-08-01T04:37:17;7.55;;;2.92;;
80183;SDS011;69682;52.138;5.440;2023-08-01T04:39:46;8.20;;;3.75;;
80183;SDS011;69682;52.138;5.440;2023-08-01T04:42:13;9.75;;;3.55;;
80183;SDS011;69682;52.138;5.440;2023-08-01T04:44:40;7.80;;;2.90;;
80183;SDS011;69682;52.138;5.440;2023-08-01T04:47:07;8.05;;;3.55;;
80183;SDS011;69682;52.138;5.440;2023-08-01T04:49:33;10.57;;;3.50;;
80183;SDS011;69682;52.138;5.440;2023-08-01T04:52:00;8.35;;;3.58;;
80183;SDS011;69682;52.138;5.440;2023-08-01T04:54:26;10.45;;;4.13;;
80183;SDS011;69682;52.138;5.440;2023-08-01T04:56:53;7.25;;;3.65;;
80183;SDS011;69682;52.138;5.440;2023-08-01T04:59:19;8.18;;;3.25;;
80183;SDS011;69682;52.138;5.440;2023-08-01T05:01:46;5.70;;;3.10;;
80183;SDS011;69682;52.138;5.440;2023-08-01T05:04:12;6.75;;;3.05;;
80183;SDS011;69682;52.138;5.440;2023-08-01T05:06:39;8.10;;;3.15;;
80183;SDS011;69682;52.138;5.440;2023-08-01T05:09:07;12.23;;;3.30;;
80183;SDS011;69682;52.138;5.440;2023-08-01T05:11:33;5.82;;;3.08;;
80183;SDS011;69682;52.138;5.440;2023-08-01T05:14:00;6.80;;;3.75;;
80183;SDS011;69682;52.138;5.440;2023-08-01T05:16:26;8.23;;;3.75;;
80183;SDS011;69682;52.138;5.440;2023-08-01T05:18:53;7.97;;;3.55;;
80183;SDS011;69682;52.138;5.440;2023-08-01T05:21:20;6.30;;;3.13;;
80183;SDS011;69682;52.138;5.440;2023-08-01T05:23:46;10.07;;;4.10;;
80183;SDS011;69682;52.138;5.440;2023-08-01T05:26:13;9.85;;;3.55;;
80183;SDS011;69682;52.138;5.440;2023-08-01T05:28:39;6.57;;;3.22;;
80183;SDS011;69682;52.138;5.440;2023-08-01T05:31:06;12.27;;;3.78;;
80183;SDS011;69682;52.138;5.440;2023-08-01T05:33:33;7.47;;;2.97;;
80183;SDS011;69682;52.138;5.440;2023-08-01T05:35:59;7.60;;;2.90;;
80183;SDS011;69682;52.138;5.440;2023-08-01T05:38:26;7.20;;;3.05;;
80183;SDS011;69682;52.138;5.440;2023-08-01T05:40:52;6.13;;;2.88;;
80183;SDS011;69682;52.138;5.440;2023-08-01T05:43:19;10.80;;;3.83;;
80183;SDS011;69682;52.138;5.440;2023-08-01T05:45:45;10.63;;;3.53;;
80183;SDS011;69682;52.138;5.440;2023-08-01T05:48:12;5.97;;;3.22;;
80183;SDS011;69682;52.138;5.440;2023-08-01T05:50:40;11.57;;;3.40;;
80183;SDS011;69682;52.138;5.440;2023-08-01T05:53:06;13.23;;;3.70;;
80183;SDS011;69682;52.138;5.440;2023-08-01T05:55:34;10.38;;;3.47;;
80183;SDS011;69682;52.138;5.440;2023-08-01T05:58:00;8.15;;;2.88;;
80183;SDS011;69682;52.138;5.440;2023-08-01T06:00:27;6.55;;;2.65;;
80183;SDS011;69682;52.138;5.440;2023-08-01T06:02:54;9.25;;;3.30;;
80183;SDS011;69682;52.138;5.440;2023-08-01T06:05:20;8.25;;;2.95;;
80183;SDS011;69682;52.138;5.440;2023-08-01T06:07:47;12.75;;;3.00;;
80183;SDS011;69682;52.138;5.440;2023-08-01T06:10:14;7.90;;;3.38;;
80183;SDS011;69682;52.138;5.440;2023-08-01T06:12:41;9.40;;;3.30;;
80183;SDS011;69682;52.138;5.440;2023-08-01T06:15:07;5.43;;;2.63;;
80183;SDS011;69682;52.138;5.440;2023-08-01T06:17:34;7.88;;;3.10;;
80183;SDS011;69682;52.138;5.440;2023-08-01T06:20:01;7.53;;;3.13;;
80183;SDS011;69682;52.138;5.440;2023-08-01T06:22:30;8.70;;;2.58;;
80183;SDS011;69682;52.138;5.440;2023-08-01T06:24:57;9.10;;;2.47;;
80183;SDS011;69682;52.138;5.440;2023-08-01T06:27:24;9.02;;;2.67;;
80183;SDS011;69682;52.138;5.440;2023-08-01T06:29:51;7.10;;;6.28;;
80183;SDS011;69682;52.138;5.440;2023-08-01T06:32:17;9.27;;;2.75;;
80183;SDS011;69682;52.138;5.440;2023-08-01T06:34:51;8.00;;;2.42;;
80183;SDS011;69682;52.138;5.440;2023-08-01T06:37:17;5.95;;;2.63;;
80183;SDS011;69682;52.138;5.440;2023-08-01T06:39:49;5.05;;;2.85;;
80183;SDS011;69682;52.138;5.440;2023-08-01T06:42:16;8.07;;;2.97;;
80183;SDS011;69682;52.138;5.440;2023-08-01T06:44:43;10.68;;;2.70;;
80183;SDS011;69682;52.138;5.440;2023-08-01T06:47:09;7.03;;;2.90;;
80183;SDS011;69682;52.138;5.440;2023-08-01T06:49:35;4.88;;;2.30;;
80183;SDS011;69682;52.138;5.440;2023-08-01T06:52:02;6.03;;;2.20;;
80183;SDS011;69682;52.138;5.440;2023-08-01T06:54:29;7.97;;;3.05;;
80183;SDS011;69682;52.138;5.440;2023-08-01T06:56:55;9.50;;;3.47;;
80183;SDS011;69682;52.138;5.440;2023-08-01T06:59:22;6.53;;;2.72;;
80183;SDS011;69682;52.138;5.440;2023-08-01T07:02:08;7.35;;;2.58;;
80183;SDS011;69682;52.138;5.440;2023-08-01T07:04:35;12.25;;;3.55;;
80183;SDS011;69682;52.138;5.440;2023-08-01T07:07:01;4.18;;;2.25;;
80183;SDS011;69682;52.138;5.440;2023-08-01T07:09:30;6.35;;;2.72;;
80183;SDS011;69682;52.138;5.440;2023-08-01T07:11:56;6.72;;;2.15;;
80183;SDS011;69682;52.138;5.440;2023-08-01T07:14:23;4.90;;;2.72;;
80183;SDS011;69682;52.138;5.440;2023-08-01T07:16:49;6.00;;;2.13;;
80183;SDS011;69682;52.138;5.440;2023-08-01T07:19:16;9.07;;;2.63;;
80183;SDS011;69682;52.138;5.440;2023-08-01T07:21:43;7.72;;;3.25;;
80183;SDS011;69682;52.138;5.440;2023-08-01T07:26:37;10.00;;;2.30;;
80183;SDS011;69682;52.138;5.440;2023-08-01T07:29:05;5.57;;;2.35;;
80183;SDS011;69682;52.138;5.440;2023-08-01T07:31:31;5.43;;;2.10;;
80183;SDS011;69682;52.138;5.440;2023-08-01T07:33:58;3.63;;;2.03;;
80183;SDS011;69682;52.138;5.440;2023-08-01T07:36:25;8.55;;;2.50;;
80183;SDS011;69682;52.138;5.440;2023-08-01T07:38:52;5.65;;;1.80;;
80183;SDS011;69682;52.138;5.440;2023-08-01T07:41:19;4.40;;;1.95;;
80183;SDS011;69682;52.138;5.440;2023-08-01T07:43:46;5.22;;;1.85;;
80183;SDS011;69682;52.138;5.440;2023-08-01T07:46:13;5.72;;;3.05;;
80183;SDS011;69682;52.138;5.440;2023-08-01T07:48:39;6.90;;;2.92;;
80183;SDS011;69682;52.138;5.440;2023-08-01T07:51:06;6.72;;;2.35;;
80183;SDS011;69682;52.138;5.440;2023-08-01T07:53:34;4.68;;;2.00;;
80183;SDS011;69682;52.138;5.440;2023-08-01T07:56:00;5.63;;;1.90;;
80183;SDS011;69682;52.138;5.440;2023-08-01T08:00:56;3.25;;;2.00;;
80183;SDS011;69682;52.138;5.440;2023-08-01T08:03:22;7.20;;;2.47;;
80183;SDS011;69682;52.138;5.440;2023-08-01T08:05:50;3.13;;;2.08;;
80183;SDS011;69682;52.138;5.440;2023-08-01T08:08:24;7.25;;;2.17;;
80183;SDS011;69682;52.138;5.440;2023-08-01T08:10:57;4.35;;;2.05;;
80183;SDS011;69682;52.138;5.440;2023-08-01T08:13:23;8.35;;;2.40;;
80183;SDS011;69682;52.138;5.440;2023-08-01T08:15:55;5.63;;;2.78;;
80183;SDS011;69682;52.138;5.440;2023-08-01T08:18:26;10.73;;;2.42;;
80183;SDS011;69682;52.138;5.440;2023-08-01T08:20:52;7.05;;;2.15;;
80183;SDS011;69682;52.138;5.440;2023-08-01T08:23:19;5.70;;;2.80;;
80183;SDS011;69682;52.138;5.440;2023-08-01T08:25:46;5.30;;;2.47;;
80183;SDS011;69682;52.138;5.440;2023-08-01T08:28:13;4.90;;;2.70;;
80183;SDS011;69682;52.138;5.440;2023-08-01T08:30:45;8.73;;;2.25;;
80183;SDS011;69682;52.138;5.440;2023-08-01T08:33:21;4.07;;;1.90;;
80183;SDS011;69682;52.138;5.440;2023-08-01T08:35:48;3.42;;;1.60;;
80183;SDS011;69682;52.138;5.440;2023-08-01T08:38:16;5.40;;;2.67;;
80183;SDS011;69682;52.138;5.440;2023-08-01T08:40:55;3.83;;;1.65;;
80183;SDS011;69682;52.138;5.440;2023-08-01T08:43:34;5.35;;;2.25;;
80183;SDS011;69682;52.138;5.440;2023-08-01T08:46:03;5.53;;;1.58;;
80183;SDS011;69682;52.138;5.440;2023-08-01T08:48:30;1.35;;;1.10;;
80183;SDS011;69682;52.138;5.440;2023-08-01T08:50:59;7.00;;;2.05;;
80183;SDS011;69682;52.138;5.440;2023-08-01T08:53:27;2.55;;;1.77;;
80183;SDS011;69682;52.138;5.440;2023-08-01T08:55:53;4.15;;;1.58;;
80183;SDS011;69682;52.138;5.440;2023-08-01T08:58:20;11.50;;;2.00;;
80183;SDS011;69682;52.138;5.440;2023-08-01T09:00:48;8.48;;;2.03;;
80183;SDS011;69682;52.138;5.440;2023-08-01T09:03:15;5.55;;;2.25;;
80183;SDS011;69682;52.138;5.440;2023-08-01T09:05:49;4.50;;;1.85;;
80183;SDS011;69682;52.138;5.440;2023-08-01T09:08:20;8.10;;;1.83;;
80183;SDS011;69682;52.138;5.440;2023-08-01T09:10:50;3.58;;;1.55;;
80183;SDS011;69682;52.138;5.440;2023-08-01T09:13:17;2.97;;;1.60;;
80183;SDS011;69682;52.138;5.440;2023-08-01T09:15:44;6.47;;;1.80;;
80183;SDS011;69682;52.138;5.440;2023-08-01T09:18:13;3.58;;;2.05;;
80183;SDS011;69682;52.138;5.440;2023-08-01T09:20:49;3.88;;;1.40;;
80183;SDS011;69682;52.138;5.440;2023-08-01T09:23:16;3.38;;;1.98;;
80183;SDS011;69682;52.138;5.440;2023-08-01T09:28:16;5.70;;;1.80;;
80183;SDS011;69682;52.138;5.440;2023-08-01T09:33:16;10.05;;;2.75;;
80183;SDS011;69682;52.138;5.440;2023-08-01T09:35:43;2.42;;;1.80;;
80183;SDS011;69682;52.138;5.440;2023-08-01T09:38:13;5.90;;;2.22;;
80183;SDS011;69682;52.138;5.440;2023-08-01T09:40:42;2.38;;;1.48;;
80183;SDS011;69682;52.138;5.440;2023-08-01T09:43:10;10.65;;;3.55;;
80183;SDS011;69682;52.138;5.440;2023-08-01T09:48:28;5.50;;;2.25;;
80183;SDS011;69682;52.138;5.440;2023-08-01T09:51:08;3.08;;;1.40;;
80183;SDS011;69682;52.138;5.440;2023-08-01T09:56:18;4.18;;;1.90;;
80183;SDS011;69682;52.138;5.440;2023-08-01T09:58:52;6.05;;;1.85;;
80183;SDS011;69682;52.138;5.440;2023-08-01T10:01:24;5.38;;;2.03;;
80183;SDS011;69682;52.138;5.440;2023-08-01T10:03:52;4.90;;;2.13;;
80183;SDS011;69682;52.138;5.440;2023-08-01T10:06:23;6.60;;;2.30;;
80183;SDS011;69682;52.138;5.440;2023-08-01T10:08:54;6.50;;;2.08;;
80183;SDS011;69682;52.138;5.440;2023-08-01T10:11:22;5.25;;;2.65;;
80183;SDS011;69682;52.138;5.440;2023-08-01T10:16:16;9.52;;;2.22;;
80183;SDS011;69682;52.138;5.440;2023-08-01T10:18:43;5.70;;;1.50;;
80183;SDS011;69682;52.138;5.440;2023-08-01T10:21:13;5.43;;;1.65;;
80183;SDS011;69682;52.138;5.440;2023-08-01T10:23:42;3.97;;;1.70;;
80183;SDS011;69682;52.138;5.440;2023-08-01T10:26:10;2.92;;;1.50;;
80183;SDS011;69682;52.138;5.440;2023-08-01T10:28:38;6.18;;;2.17;;
80183;SDS011;69682;52.138;5.440;2023-08-01T10:31:11;3.63;;;2.00;;
80183;SDS011;69682;52.138;5.440;2023-08-01T10:36:12;3.58;;;1.48;;
80183;SDS011;69682;52.138;5.440;2023-08-01T10:41:27;5.60;;;1.67;;
80183;SDS011;69682;52.138;5.440;2023-08-01T10:44:14;4.65;;;1.98;;
80183;SDS011;69682;52.138;5.440;2023-08-01T10:47:15;5.15;;;1.90;;
80183;SDS011;69682;52.138;5.440;2023-08-01T10:52:16;5.25;;;1.70;;
80183;SDS011;69682;52.138;5.440;2023-08-01T10:54:44;6.45;;;1.70;;
80183;SDS011;69682;52.138;5.440;2023-08-01T10:57:15;2.75;;;1.70;;
80183;SDS011;69682;52.138;5.440;2023-08-01T10:59:44;2.50;;;1.55;;
80183;SDS011;69682;52.138;5.440;2023-08-01T11:02:11;2.22;;;1.33;;
80183;SDS011;69682;52.138;5.440;2023-08-01T11:04:38;5.28;;;1.60;;
80183;SDS011;69682;52.138;5.440;2023-08-01T11:07:04;4.95;;;1.55;;
80183;SDS011;69682;52.138;5.440;2023-08-01T11:09:31;2.70;;;1.25;;
80183;SDS011;69682;52.138;5.440;2023-08-01T11:11:58;7.05;;;1.70;;
80183;SDS011;69682;52.138;5.440;2023-08-01T11:14:28;2.20;;;1.17;;
80183;SDS011;69682;52.138;5.440;2023-08-01T11:16:55;5.88;;;1.25;;
80183;SDS011;69682;52.138;5.440;2023-08-01T11:19:27;2.75;;;1.67;;
80183;SDS011;69682;52.138;5.440;2023-08-01T11:21:55;3.33;;;1.45;;
80183;SDS011;69682;52.138;5.440;2023-08-01T11:24:23;4.78;;;1.73;;
80183;SDS011;69682;52.138;5.440;2023-08-01T11:26:51;2.10;;;1.25;;
80183;SDS011;69682;52.138;5.440;2023-08-01T11:29:19;2.00;;;1.80;;
80183;SDS011;69682;52.138;5.440;2023-08-01T11:31:53;4.82;;;1.67;;
80183;SDS011;69682;52.138;5.440;2023-08-01T11:34:21;5.72;;;1.90;;
80183;SDS011;69682;52.138;5.440;2023-08-01T11:36:48;1.92;;;1.30;;
80183;SDS011;69682;52.138;5.440;2023-08-01T11:39:16;3.10;;;1.23;;
80183;SDS011;69682;52.138;5.440;2023-08-01T11:41:43;3.60;;;1.42;;
80183;SDS011;69682;52.138;5.440;2023-08-01T11:44:10;1.23;;;0.93;;
80183;SDS011;69682;52.138;5.440;2023-08-01T11:46:45;2.35;;;1.27;;
80183;SDS011;69682;52.138;5.440;2023-08-01T11:49:13;5.88;;;1.75;;
80183;SDS011;69682;52.138;5.440;2023-08-01T11:51:41;4.18;;;2.08;;
80183;SDS011;69682;52.138;5.440;2023-08-01T11:54:09;8.32;;;1.83;;
80183;SDS011;69682;52.138;5.440;2023-08-01T11:56:38;3.47;;;1.77;;
80183;SDS011;69682;52.138;5.440;2023-08-01T11:59:09;3.95;;;1.55;;
80183;SDS011;69682;52.138;5.440;2023-08-01T12:01:37;3.08;;;1.60;;
80183;SDS011;69682;52.138;5.440;2023-08-01T12:04:09;4.60;;;1.58;;
80183;SDS011;69682;52.138;5.440;2023-08-01T12:06:36;3.70;;;1.63;;
80183;SDS011;69682;52.138;5.440;2023-08-01T12:09:06;4.68;;;1.50;;
80183;SDS011;69682;52.138;5.440;2023-08-01T12:11:36;4.82;;;1.60;;
80183;SDS011;69682;52.138;5.440;2023-08-01T12:14:09;3.75;;;1.30;;
80183;SDS011;69682;52.138;5.440;2023-08-01T12:16:46;4.28;;;1.30;;
80183;SDS011;69682;52.138;5.440;2023-08-01T12:19:17;3.60;;;1.27;;
80183;SDS011;69682;52.138;5.440;2023-08-01T12:21:44;4.85;;;1.30;;
80183;SDS011;69682;52.138;5.440;2023-08-01T12:24:11;4.40;;;1.52;;
80183;SDS011;69682;52.138;5.440;2023-08-01T12:26:38;3.47;;;1.95;;
80183;SDS011;69682;52.138;5.440;2023-08-01T12:29:05;5.65;;;1.75;;
80183;SDS011;69682;52.138;5.440;2023-08-01T12:31:31;6.35;;;1.75;;
80183;SDS011;69682;52.138;5.440;2023-08-01T12:34:00;4.10;;;1.75;;
80183;SDS011;69682;52.138;5.440;2023-08-01T12:36:27;5.47;;;1.63;;
80183;SDS011;69682;52.138;5.440;2023-08-01T12:38:54;6.35;;;1.83;;
80183;SDS011;69682;52.138;5.440;2023-08-01T12:41:21;8.18;;;1.77;;
80183;SDS011;69682;52.138;5.440;2023-08-01T12:43:47;5.80;;;2.13;;
80183;SDS011;69682;52.138;5.440;2023-08-01T12:46:14;3.50;;;1.75;;
80183;SDS011;69682;52.138;5.440;2023-08-01T12:48:43;5.38;;;1.95;;
80183;SDS011;69682;52.138;5.440;2023-08-01T12:51:23;5.97;;;1.85;;
80183;SDS011;69682;52.138;5.440;2023-08-01T12:53:49;5.75;;;1.80;;
80183;SDS011;69682;52.138;5.440;2023-08-01T12:56:16;4.15;;;1.77;;
80183;SDS011;69682;52.138;5.440;2023-08-01T12:58:43;4.50;;;2.03;;
80183;SDS011;69682;52.138;5.440;2023-08-01T13:01:09;4.07;;;1.55;;
80183;SDS011;69682;52.138;5.440;2023-08-01T13:03:36;1.60;;;1.08;;
80183;SDS011;69682;52.138;5.440;2023-08-01T13:06:03;3.83;;;1.10;;
80183;SDS011;69682;52.138;5.440;2023-08-01T13:08:30;4.70;;;1.13;;
80183;SDS011;69682;52.138;5.440;2023-08-01T13:11:00;3.05;;;1.75;;
80183;SDS011;69682;52.138;5.440;2023-08-01T13:13:26;2.53;;;1.38;;
80183;SDS011;69682;52.138;5.440;2023-08-01T13:15:53;3.55;;;1.55;;
80183;SDS011;69682;52.138;5.440;2023-08-01T13:18:21;5.15;;;1.80;;
80183;SDS011;69682;52.138;5.440;2023-08-01T13:20:48;3.40;;;1.60;;
80183;SDS011;69682;52.138;5.440;2023-08-01T13:23:17;4.72;;;1.52;;
80183;SDS011;69682;52.138;5.440;2023-08-01T13:25:44;4.85;;;1.58;;
80183;SDS011;69682;52.138;5.440;2023-08-01T13:28:13;3.42;;;1.75;;
80183;SDS011;69682;52.138;5.440;2023-08-01T13:30:49;4.93;;;1.55;;
80183;SDS011;69682;52.138;5.440;2023-08-01T13:33:16;3.03;;;1.77;;
80183;SDS011;69682;52.138;5.440;2023-08-01T13:35:43;2.95;;;1.63;;
80183;SDS011;69682;52.138;5.440;2023-08-01T13:38:09;5.43;;;2.38;;
80183;SDS011;69682;52.138;5.440;2023-08-01T13:40:36;4.07;;;2.03;;
80183;SDS011;69682;52.138;5.440;2023-08-01T13:43:02;4.45;;;1.65;;
80183;SDS011;69682;52.138;5.440;2023-08-01T13:45:32;3.80;;;1.45;;
80183;SDS011;69682;52.138;5.440;2023-08-01T13:47:58;3.55;;;1.42;;
80183;SDS011;69682;52.138;5.440;2023-08-01T13:50:25;3.22;;;1.77;;
80183;SDS011;69682;52.138;5.440;2023-08-01T13:52:55;3.75;;;1.70;;
80183;SDS011;69682;52.138;5.440;2023-08-01T13:55:21;2.05;;;1.40;;
80183;SDS011;69682;52.138;5.440;2023-08-01T13:57:48;4.13;;;1.20;;
80183;SDS011;69682;52.138;5.440;2023-08-01T14:00:15;4.20;;;1.70;;
80183;SDS011;69682;52.138;5.440;2023-08-01T14:02:41;4.90;;;1.50;;
80183;SDS011;69682;52.138;5.440;2023-08-01T14:05:08;2.20;;;1.30;;
80183;SDS011;69682;52.138;5.440;2023-08-01T14:07:36;3.17;;;1.10;;
80183;SDS011;69682;52.138;5.440;2023-08-01T14:10:09;2.42;;;1.77;;
80183;SDS011;69682;52.138;5.440;2023-08-01T14:12:36;3.50;;;1.52;;
80183;SDS011;69682;52.138;5.440;2023-08-01T14:15:03;3.70;;;1.65;;
80183;SDS011;69682;52.138;5.440;2023-08-01T14:17:30;4.25;;;1.50;;
80183;SDS011;69682;52.138;5.440;2023-08-01T14:19:56;4.10;;;1.48;;
80183;SDS011;69682;52.138;5.440;2023-08-01T14:22:23;2.58;;;1.13;;
80183;SDS011;69682;52.138;5.440;2023-08-01T14:24:50;4.85;;;1.55;;
80183;SDS011;69682;52.138;5.440;2023-08-01T14:27:16;3.47;;;1.55;;
80183;SDS011;69682;52.138;5.440;2023-08-01T14:29:43;4.05;;;1.58;;
80183;SDS011;69682;52.138;5.440;2023-08-01T14:32:09;7.13;;;1.75;;
80183;SDS011;69682;52.138;5.440;2023-08-01T14:34:36;5.22;;;1.40;;
80183;SDS011;69682;52.138;5.440;2023-08-01T14:37:02;6.57;;;1.95;;
80183;SDS011;69682;52.138;5.440;2023-08-01T14:39:29;4.22;;;1.88;;
80183;SDS011;69682;52.138;5.440;2023-08-01T14:41:56;3.53;;;1.65;;
80183;SDS011;69682;52.138;5.440;2023-08-01T14:44:25;6.22;;;1.85;;
80183;SDS011;69682;52.138;5.440;2023-08-01T14:46:52;2.58;;;1.40;;
80183;SDS011;69682;52.138;5.440;2023-08-01T14:49:22;3.80;;;1.40;;
80183;SDS011;69682;52.138;5.440;2023-08-01T14:51:49;2.30;;;1.30;;
80183;SDS011;69682;52.138;5.440;2023-08-01T14:54:16;9.43;;;2.17;;
80183;SDS011;69682;52.138;5.440;2023-08-01T14:56:58;2.35;;;1.55;;
80183;SDS011;69682;52.138;5.440;2023-08-01T14:59:25;2.85;;;1.25;;
80183;SDS011;69682;52.138;5.440;2023-08-01T15:01:52;4.15;;;1.95;;
80183;SDS011;69682;52.138;5.440;2023-08-01T15:04:18;4.18;;;1.73;;
80183;SDS011;69682;52.138;5.440;2023-08-01T15:06:45;11.05;;;1.58;;
80183;SDS011;69682;52.138;5.440;2023-08-01T15:09:12;3.47;;;1.67;;
80183;SDS011;69682;52.138;5.440;2023-08-01T15:11:38;4.57;;;1.13;;
80183;SDS011;69682;52.138;5.440;2023-08-01T15:14:05;2.38;;;1.33;;
80183;SDS011;69682;52.138;5.440;2023-08-01T15:16:32;7.70;;;1.40;;